sensor_id;sensor_type;location;lat;lon;timestamp;P1;durP1;ratioP1;P2;durP2;ratioP2
5153;SDS011;2595;53.584;10.084;2023-02-01T00:01:39;14.37;;;3.77;;
5153;SDS011;2595;53.584;10.084;2023-02-01T00:04:05;10.20;;;3.70;;
5153;SDS011;2595;53.584;10.084;2023-02-01T00:06:30;16.90;;;4.27;;
5153;SDS011;2595;53.584;10.084;2023-02-01T00:08:56;9.20;;;3.37;;
5153;SDS011;2595;53.584;10.084;2023-02-01T00:11:22;6.47;;;3.23;;
5153;SDS011;2595;53.584;10.084;2023-02-01T00:13:48;6.77;;;3.43;;
5153;SDS011;2595;53.584;10.084;2023-02-01T00:16:16;11.30;;;3.67;;
5153;SDS011;2595;53.584;10.084;2023-02-01T00:18:47;15.33;;;3.20;;
5153;SDS011;2595;53.584;10.084;2023-02-01T00:21:14;12.20;;;4.37;;
5153;SDS011;2595;53.584;10.084;2023-02-01T00:23:42;17.40;;;3.47;;
5153;SDS011;2595;53.584;10.084;2023-02-01T00:26:29;17.00;;;3.27;;
5153;SDS011;2595;53.584;10.084;2023-02-01T00:28:57;15.90;;;3.97;;
5153;SDS011;2595;53.584;10.084;2023-02-01T00:31:23;14.43;;;4.37;;
5153;SDS011;2595;53.584;10.084;2023-02-01T00:33:49;17.23;;;3.80;;
5153;SDS011;2595;53.584;10.084;2023-02-01T00:36:15;21.87;;;3.87;;
5153;SDS011;2595;53.584;10.084;2023-02-01T00:38:42;16.07;;;3.10;;
5153;SDS011;2595;53.584;10.084;2023-02-01T00:41:13;17.00;;;3.30;;
5153;SDS011;2595;53.584;10.084;2023-02-01T00:43:43;14.60;;;3.97;;
5153;SDS011;2595;53.584;10.084;2023-02-01T00:46:09;21.77;;;3.60;;
5153;SDS011;2595;53.584;10.084;2023-02-01T00:48:36;17.40;;;4.63;;
5153;SDS011;2595;53.584;10.084;2023-02-01T00:51:02;20.50;;;3.93;;
5153;SDS011;2595;53.584;10.084;2023-02-01T00:53:30;12.73;;;3.93;;
5153;SDS011;2595;53.584;10.084;2023-02-01T00:55:57;17.83;;;4.93;;
5153;SDS011;2595;53.584;10.084;2023-02-01T00:58:23;14.40;;;4.20;;
5153;SDS011;2595;53.584;10.084;2023-02-01T01:00:56;16.23;;;4.40;;
5153;SDS011;2595;53.584;10.084;2023-02-01T01:03:31;14.50;;;2.80;;
5153;SDS011;2595;53.584;10.084;2023-02-01T01:05:59;13.77;;;3.93;;
5153;SDS011;2595;53.584;10.084;2023-02-01T01:08:27;12.20;;;3.93;;
5153;SDS011;2595;53.584;10.084;2023-02-01T01:10:53;13.30;;;4.23;;
5153;SDS011;2595;53.584;10.084;2023-02-01T01:13:18;18.50;;;3.83;;
5153;SDS011;2595;53.584;10.084;2023-02-01T01:15:44;16.83;;;3.50;;
5153;SDS011;2595;53.584;10.084;2023-02-01T01:18:10;19.13;;;3.53;;
5153;SDS011;2595;53.584;10.084;2023-02-01T01:20:37;19.13;;;4.17;;
5153;SDS011;2595;53.584;10.084;2023-02-01T01:23:04;25.33;;;4.63;;
5153;SDS011;2595;53.584;10.084;2023-02-01T01:25:31;25.87;;;4.10;;
5153;SDS011;2595;53.584;10.084;2023-02-01T01:27:57;18.60;;;5.80;;
5153;SDS011;2595;53.584;10.084;2023-02-01T01:30:23;28.53;;;4.73;;
5153;SDS011;2595;53.584;10.084;2023-02-01T01:32:48;18.40;;;4.97;;
5153;SDS011;2595;53.584;10.084;2023-02-01T01:35:14;22.53;;;5.53;;
5153;SDS011;2595;53.584;10.084;2023-02-01T01:37:40;18.97;;;5.17;;
5153;SDS011;2595;53.584;10.084;2023-02-01T01:40:06;24.60;;;4.50;;
5153;SDS011;2595;53.584;10.084;2023-02-01T01:42:38;23.57;;;4.37;;
5153;SDS011;2595;53.584;10.084;2023-02-01T01:45:18;23.83;;;4.53;;
5153;SDS011;2595;53.584;10.084;2023-02-01T01:47:46;24.20;;;3.80;;
5153;SDS011;2595;53.584;10.084;2023-02-01T01:50:20;10.60;;;4.23;;
5153;SDS011;2595;53.584;10.084;2023-02-01T01:52:51;9.33;;;3.17;;
5153;SDS011;2595;53.584;10.084;2023-02-01T01:55:20;18.77;;;6.03;;
5153;SDS011;2595;53.584;10.084;2023-02-01T01:57:53;17.97;;;4.80;;
5153;SDS011;2595;53.584;10.084;2023-02-01T02:00:23;15.10;;;4.90;;
5153;SDS011;2595;53.584;10.084;2023-02-01T02:02:52;16.87;;;4.47;;
5153;SDS011;2595;53.584;10.084;2023-02-01T02:05:22;20.07;;;5.10;;
5153;SDS011;2595;53.584;10.084;2023-02-01T02:07:48;23.87;;;5.43;;
5153;SDS011;2595;53.584;10.084;2023-02-01T02:10:15;21.00;;;4.17;;
5153;SDS011;2595;53.584;10.084;2023-02-01T02:12:43;14.47;;;3.27;;
5153;SDS011;2595;53.584;10.084;2023-02-01T02:15:12;11.93;;;4.07;;
5153;SDS011;2595;53.584;10.084;2023-02-01T02:25:59;11.20;;;5.73;;
5153;SDS011;2595;53.584;10.084;2023-02-01T02:28:57;16.10;;;4.47;;
5153;SDS011;2595;53.584;10.084;2023-02-01T02:45:54;17.37;;;4.87;;
5153;SDS011;2595;53.584;10.084;2023-02-01T02:49:12;17.50;;;4.40;;
5153;SDS011;2595;53.584;10.084;2023-02-01T02:52:09;11.17;;;4.40;;
5153;SDS011;2595;53.584;10.084;2023-02-01T02:54:57;15.00;;;6.80;;
5153;SDS011;2595;53.584;10.084;2023-02-01T03:00:17;29.40;;;3.90;;
5153;SDS011;2595;53.584;10.084;2023-02-01T03:03:03;16.10;;;4.30;;
5153;SDS011;2595;53.584;10.084;2023-02-01T03:05:48;14.27;;;4.07;;
5153;SDS011;2595;53.584;10.084;2023-02-01T03:08:22;19.90;;;4.30;;
5153;SDS011;2595;53.584;10.084;2023-02-01T03:10:55;18.80;;;5.10;;
5153;SDS011;2595;53.584;10.084;2023-02-01T03:21:31;19.77;;;4.80;;
5153;SDS011;2595;53.584;10.084;2023-02-01T03:24:02;14.87;;;3.40;;
5153;SDS011;2595;53.584;10.084;2023-02-01T03:26:34;18.87;;;4.70;;
5153;SDS011;2595;53.584;10.084;2023-02-01T03:29:16;16.67;;;3.67;;
5153;SDS011;2595;53.584;10.084;2023-02-01T03:31:46;18.80;;;4.37;;
5153;SDS011;2595;53.584;10.084;2023-02-01T03:34:12;27.57;;;5.23;;
5153;SDS011;2595;53.584;10.084;2023-02-01T03:39:22;9.53;;;3.53;;
5153;SDS011;2595;53.584;10.084;2023-02-01T03:41:56;7.00;;;2.57;;
5153;SDS011;2595;53.584;10.084;2023-02-01T03:47:07;11.63;;;3.20;;
5153;SDS011;2595;53.584;10.084;2023-02-01T03:52:10;7.87;;;3.53;;
5153;SDS011;2595;53.584;10.084;2023-02-01T03:54:42;7.60;;;3.03;;
5153;SDS011;2595;53.584;10.084;2023-02-01T03:57:11;6.50;;;2.23;;
5153;SDS011;2595;53.584;10.084;2023-02-01T03:59:43;12.50;;;2.63;;
5153;SDS011;2595;53.584;10.084;2023-02-01T04:02:10;9.97;;;3.67;;
5153;SDS011;2595;53.584;10.084;2023-02-01T04:04:36;5.73;;;2.20;;
5153;SDS011;2595;53.584;10.084;2023-02-01T04:07:03;7.10;;;2.67;;
5153;SDS011;2595;53.584;10.084;2023-02-01T04:09:29;12.77;;;2.77;;
5153;SDS011;2595;53.584;10.084;2023-02-01T04:11:54;6.77;;;2.70;;
5153;SDS011;2595;53.584;10.084;2023-02-01T04:14:20;12.17;;;3.57;;
5153;SDS011;2595;53.584;10.084;2023-02-01T04:16:46;15.77;;;3.90;;
5153;SDS011;2595;53.584;10.084;2023-02-01T04:19:11;9.00;;;2.80;;
5153;SDS011;2595;53.584;10.084;2023-02-01T04:21:37;9.30;;;3.17;;
5153;SDS011;2595;53.584;10.084;2023-02-01T04:24:03;6.87;;;2.73;;
5153;SDS011;2595;53.584;10.084;2023-02-01T04:26:29;16.40;;;3.30;;
5153;SDS011;2595;53.584;10.084;2023-02-01T04:28:55;6.73;;;2.97;;
5153;SDS011;2595;53.584;10.084;2023-02-01T04:31:20;5.63;;;2.97;;
5153;SDS011;2595;53.584;10.084;2023-02-01T04:33:52;9.33;;;3.17;;
5153;SDS011;2595;53.584;10.084;2023-02-01T04:36:19;7.63;;;2.60;;
5153;SDS011;2595;53.584;10.084;2023-02-01T04:38:47;10.27;;;2.10;;
5153;SDS011;2595;53.584;10.084;2023-02-01T04:41:13;12.47;;;3.00;;
5153;SDS011;2595;53.584;10.084;2023-02-01T04:43:39;7.77;;;2.97;;
5153;SDS011;2595;53.584;10.084;2023-02-01T04:46:04;12.33;;;3.07;;
5153;SDS011;2595;53.584;10.084;2023-02-01T04:48:30;4.73;;;2.10;;
5153;SDS011;2595;53.584;10.084;2023-02-01T04:50:56;5.23;;;2.03;;
5153;SDS011;2595;53.584;10.084;2023-02-01T04:53:21;4.50;;;1.80;;
5153;SDS011;2595;53.584;10.084;2023-02-01T04:55:47;8.67;;;3.20;;
5153;SDS011;2595;53.584;10.084;2023-02-01T04:58:14;10.03;;;2.47;;
5153;SDS011;2595;53.584;10.084;2023-02-01T05:00:40;5.57;;;2.27;;
5153;SDS011;2595;53.584;10.084;2023-02-01T05:03:06;2.77;;;1.77;;
5153;SDS011;2595;53.584;10.084;2023-02-01T05:05:32;7.13;;;2.10;;
5153;SDS011;2595;53.584;10.084;2023-02-01T05:07:57;3.30;;;1.80;;
5153;SDS011;2595;53.584;10.084;2023-02-01T05:10:23;6.03;;;1.60;;
5153;SDS011;2595;53.584;10.084;2023-02-01T05:12:49;3.10;;;1.30;;
5153;SDS011;2595;53.584;10.084;2023-02-01T05:15:33;16.03;;;1.80;;
5153;SDS011;2595;53.584;10.084;2023-02-01T05:17:58;5.60;;;2.03;;
5153;SDS011;2595;53.584;10.084;2023-02-01T05:20:24;1.10;;;0.90;;
5153;SDS011;2595;53.584;10.084;2023-02-01T05:22:50;1.87;;;1.43;;
5153;SDS011;2595;53.584;10.084;2023-02-01T05:25:16;1.73;;;0.90;;
5153;SDS011;2595;53.584;10.084;2023-02-01T05:27:42;2.80;;;1.00;;
5153;SDS011;2595;53.584;10.084;2023-02-01T05:30:08;5.00;;;1.20;;
5153;SDS011;2595;53.584;10.084;2023-02-01T05:32:34;1.23;;;0.80;;
5153;SDS011;2595;53.584;10.084;2023-02-01T05:34:59;0.80;;;0.80;;
5153;SDS011;2595;53.584;10.084;2023-02-01T05:37:25;1.70;;;0.70;;
5153;SDS011;2595;53.584;10.084;2023-02-01T05:39:51;1.90;;;1.10;;
5153;SDS011;2595;53.584;10.084;2023-02-01T05:42:16;0.80;;;0.80;;
5153;SDS011;2595;53.584;10.084;2023-02-01T05:44:42;0.70;;;0.70;;
5153;SDS011;2595;53.584;10.084;2023-02-01T05:47:08;0.97;;;0.70;;
5153;SDS011;2595;53.584;10.084;2023-02-01T05:49:34;1.53;;;1.30;;
5153;SDS011;2595;53.584;10.084;2023-02-01T05:51:59;1.10;;;1.00;;
5153;SDS011;2595;53.584;10.084;2023-02-01T05:54:25;2.13;;;0.90;;
5153;SDS011;2595;53.584;10.084;2023-02-01T05:56:51;1.37;;;1.20;;
5153;SDS011;2595;53.584;10.084;2023-02-01T05:59:16;1.37;;;1.30;;
5153;SDS011;2595;53.584;10.084;2023-02-01T06:01:42;0.60;;;0.60;;
5153;SDS011;2595;53.584;10.084;2023-02-01T06:04:07;0.93;;;0.80;;
5153;SDS011;2595;53.584;10.084;2023-02-01T06:06:33;0.90;;;0.90;;
5153;SDS011;2595;53.584;10.084;2023-02-01T06:08:59;0.90;;;0.90;;
5153;SDS011;2595;53.584;10.084;2023-02-01T06:11:25;0.70;;;0.70;;
5153;SDS011;2595;53.584;10.084;2023-02-01T06:13:51;1.13;;;0.80;;
5153;SDS011;2595;53.584;10.084;2023-02-01T06:16:17;1.13;;;0.83;;
5153;SDS011;2595;53.584;10.084;2023-02-01T06:18:42;1.43;;;1.00;;
5153;SDS011;2595;53.584;10.084;2023-02-01T06:21:08;0.73;;;0.73;;
5153;SDS011;2595;53.584;10.084;2023-02-01T06:23:34;3.40;;;0.80;;
5153;SDS011;2595;53.584;10.084;2023-02-01T06:26:03;1.00;;;0.90;;
5153;SDS011;2595;53.584;10.084;2023-02-01T06:28:32;3.53;;;1.20;;
5153;SDS011;2595;53.584;10.084;2023-02-01T06:31:02;1.10;;;1.00;;
5153;SDS011;2595;53.584;10.084;2023-02-01T06:33:31;1.67;;;1.13;;
5153;SDS011;2595;53.584;10.084;2023-02-01T06:35:58;1.43;;;1.27;;
5153;SDS011;2595;53.584;10.084;2023-02-01T06:38:25;2.17;;;1.57;;
5153;SDS011;2595;53.584;10.084;2023-02-01T06:40:52;6.13;;;2.57;;
5153;SDS011;2595;53.584;10.084;2023-02-01T06:43:18;2.63;;;1.67;;
5153;SDS011;2595;53.584;10.084;2023-02-01T06:45:44;1.83;;;1.43;;
5153;SDS011;2595;53.584;10.084;2023-02-01T06:48:10;4.83;;;1.60;;
5153;SDS011;2595;53.584;10.084;2023-02-01T06:50:35;6.17;;;2.30;;
5153;SDS011;2595;53.584;10.084;2023-02-01T06:53:01;5.67;;;1.33;;
5153;SDS011;2595;53.584;10.084;2023-02-01T06:55:26;4.60;;;1.90;;
5153;SDS011;2595;53.584;10.084;2023-02-01T06:57:55;2.40;;;1.63;;
5153;SDS011;2595;53.584;10.084;2023-02-01T07:00:21;3.40;;;1.57;;
5153;SDS011;2595;53.584;10.084;2023-02-01T07:02:47;2.67;;;2.20;;
5153;SDS011;2595;53.584;10.084;2023-02-01T07:05:13;6.00;;;1.30;;
5153;SDS011;2595;53.584;10.084;2023-02-01T07:07:39;4.13;;;2.00;;
5153;SDS011;2595;53.584;10.084;2023-02-01T07:10:05;4.00;;;2.30;;
5153;SDS011;2595;53.584;10.084;2023-02-01T07:12:31;9.90;;;2.40;;
5153;SDS011;2595;53.584;10.084;2023-02-01T07:14:56;5.67;;;2.10;;
5153;SDS011;2595;53.584;10.084;2023-02-01T07:17:22;8.97;;;1.90;;
5153;SDS011;2595;53.584;10.084;2023-02-01T07:19:48;6.10;;;2.97;;
5153;SDS011;2595;53.584;10.084;2023-02-01T07:22:17;9.63;;;2.93;;
5153;SDS011;2595;53.584;10.084;2023-02-01T07:24:42;4.00;;;2.20;;
5153;SDS011;2595;53.584;10.084;2023-02-01T07:27:08;8.80;;;3.80;;
5153;SDS011;2595;53.584;10.084;2023-02-01T07:29:33;7.80;;;2.23;;
5153;SDS011;2595;53.584;10.084;2023-02-01T07:31:59;14.53;;;4.17;;
5153;SDS011;2595;53.584;10.084;2023-02-01T07:34:26;7.60;;;3.00;;
5153;SDS011;2595;53.584;10.084;2023-02-01T07:36:52;3.63;;;2.73;;
5153;SDS011;2595;53.584;10.084;2023-02-01T07:39:17;7.60;;;2.70;;
5153;SDS011;2595;53.584;10.084;2023-02-01T07:41:43;8.80;;;2.53;;
5153;SDS011;2595;53.584;10.084;2023-02-01T07:44:09;13.80;;;3.63;;
5153;SDS011;2595;53.584;10.084;2023-02-01T07:46:34;6.83;;;2.53;;
5153;SDS011;2595;53.584;10.084;2023-02-01T07:49:01;13.67;;;3.00;;
5153;SDS011;2595;53.584;10.084;2023-02-01T07:51:26;5.83;;;1.87;;
5153;SDS011;2595;53.584;10.084;2023-02-01T07:53:52;13.17;;;2.73;;
5153;SDS011;2595;53.584;10.084;2023-02-01T07:56:18;5.73;;;2.30;;
5153;SDS011;2595;53.584;10.084;2023-02-01T07:58:48;5.00;;;2.37;;
5153;SDS011;2595;53.584;10.084;2023-02-01T08:01:16;7.60;;;2.93;;
5153;SDS011;2595;53.584;10.084;2023-02-01T08:03:49;17.33;;;3.20;;
5153;SDS011;2595;53.584;10.084;2023-02-01T08:06:16;19.90;;;3.20;;
5153;SDS011;2595;53.584;10.084;2023-02-01T08:08:42;14.90;;;2.70;;
5153;SDS011;2595;53.584;10.084;2023-02-01T08:11:10;10.00;;;3.27;;
5153;SDS011;2595;53.584;10.084;2023-02-01T08:13:36;19.60;;;3.90;;
5153;SDS011;2595;53.584;10.084;2023-02-01T08:16:03;13.53;;;3.87;;
5153;SDS011;2595;53.584;10.084;2023-02-01T08:18:30;16.07;;;3.40;;
5153;SDS011;2595;53.584;10.084;2023-02-01T08:20:56;21.67;;;4.20;;
5153;SDS011;2595;53.584;10.084;2023-02-01T08:23:22;15.50;;;4.43;;
5153;SDS011;2595;53.584;10.084;2023-02-01T08:25:49;19.47;;;4.17;;
5153;SDS011;2595;53.584;10.084;2023-02-01T08:28:14;10.03;;;3.87;;
5153;SDS011;2595;53.584;10.084;2023-02-01T08:30:40;15.87;;;3.60;;
5153;SDS011;2595;53.584;10.084;2023-02-01T08:33:07;15.40;;;3.47;;
5153;SDS011;2595;53.584;10.084;2023-02-01T08:35:36;16.30;;;3.77;;
5153;SDS011;2595;53.584;10.084;2023-02-01T08:38:03;22.90;;;3.60;;
5153;SDS011;2595;53.584;10.084;2023-02-01T08:40:29;19.50;;;4.87;;
5153;SDS011;2595;53.584;10.084;2023-02-01T08:42:55;14.30;;;2.60;;
5153;SDS011;2595;53.584;10.084;2023-02-01T08:45:22;10.10;;;3.30;;
5153;SDS011;2595;53.584;10.084;2023-02-01T08:47:51;8.23;;;2.90;;
5153;SDS011;2595;53.584;10.084;2023-02-01T08:50:17;10.93;;;2.87;;
5153;SDS011;2595;53.584;10.084;2023-02-01T08:52:44;3.80;;;2.40;;
5153;SDS011;2595;53.584;10.084;2023-02-01T08:55:10;16.77;;;2.30;;
5153;SDS011;2595;53.584;10.084;2023-02-01T08:57:35;4.43;;;2.40;;
5153;SDS011;2595;53.584;10.084;2023-02-01T09:00:02;9.20;;;3.33;;
5153;SDS011;2595;53.584;10.084;2023-02-01T09:02:29;13.13;;;3.60;;
5153;SDS011;2595;53.584;10.084;2023-02-01T09:04:55;6.60;;;2.60;;
5153;SDS011;2595;53.584;10.084;2023-02-01T09:07:21;6.40;;;3.03;;
5153;SDS011;2595;53.584;10.084;2023-02-01T09:09:46;13.53;;;2.60;;
5153;SDS011;2595;53.584;10.084;2023-02-01T09:12:12;17.07;;;3.07;;
5153;SDS011;2595;53.584;10.084;2023-02-01T09:14:37;10.17;;;2.93;;
5153;SDS011;2595;53.584;10.084;2023-02-01T09:17:03;23.60;;;5.13;;
5153;SDS011;2595;53.584;10.084;2023-02-01T09:19:30;34.70;;;4.80;;
5153;SDS011;2595;53.584;10.084;2023-02-01T09:21:56;18.50;;;5.00;;
5153;SDS011;2595;53.584;10.084;2023-02-01T09:24:21;14.80;;;4.00;;
5153;SDS011;2595;53.584;10.084;2023-02-01T09:26:47;10.60;;;4.10;;
5153;SDS011;2595;53.584;10.084;2023-02-01T09:29:13;22.93;;;4.77;;
5153;SDS011;2595;53.584;10.084;2023-02-01T09:31:39;10.23;;;3.30;;
5153;SDS011;2595;53.584;10.084;2023-02-01T09:34:06;19.90;;;4.23;;
5153;SDS011;2595;53.584;10.084;2023-02-01T09:36:32;16.20;;;4.40;;
5153;SDS011;2595;53.584;10.084;2023-02-01T09:38:58;12.80;;;3.20;;
5153;SDS011;2595;53.584;10.084;2023-02-01T09:41:27;10.80;;;3.03;;
5153;SDS011;2595;53.584;10.084;2023-02-01T09:46:40;18.20;;;3.57;;
5153;SDS011;2595;53.584;10.084;2023-02-01T09:49:08;15.40;;;2.87;;
5153;SDS011;2595;53.584;10.084;2023-02-01T09:51:44;12.63;;;3.60;;
5153;SDS011;2595;53.584;10.084;2023-02-01T09:59:41;13.87;;;3.77;;
5153;SDS011;2595;53.584;10.084;2023-02-01T10:02:17;14.23;;;2.80;;
5153;SDS011;2595;53.584;10.084;2023-02-01T10:04:46;10.53;;;3.57;;
5153;SDS011;2595;53.584;10.084;2023-02-01T10:18:52;15.10;;;2.73;;
5153;SDS011;2595;53.584;10.084;2023-02-01T10:21:58;15.93;;;3.50;;
5153;SDS011;2595;53.584;10.084;2023-02-01T10:27:27;18.80;;;4.47;;
5153;SDS011;2595;53.584;10.084;2023-02-01T10:29:59;6.00;;;2.60;;
5153;SDS011;2595;53.584;10.084;2023-02-01T10:32:31;13.17;;;3.73;;
5153;SDS011;2595;53.584;10.084;2023-02-01T10:35:05;19.57;;;3.53;;
5153;SDS011;2595;53.584;10.084;2023-02-01T10:37:38;19.43;;;3.30;;
5153;SDS011;2595;53.584;10.084;2023-02-01T10:40:12;14.57;;;3.07;;
5153;SDS011;2595;53.584;10.084;2023-02-01T10:42:46;11.37;;;3.13;;
5153;SDS011;2595;53.584;10.084;2023-02-01T10:45:25;10.57;;;3.43;;
5153;SDS011;2595;53.584;10.084;2023-02-01T10:47:53;10.03;;;3.60;;
5153;SDS011;2595;53.584;10.084;2023-02-01T10:53:21;7.90;;;2.40;;
5153;SDS011;2595;53.584;10.084;2023-02-01T10:56:09;13.10;;;3.80;;
5153;SDS011;2595;53.584;10.084;2023-02-01T10:58:42;10.27;;;2.60;;
5153;SDS011;2595;53.584;10.084;2023-02-01T11:01:14;18.40;;;3.60;;
5153;SDS011;2595;53.584;10.084;2023-02-01T11:06:41;11.90;;;3.63;;
5153;SDS011;2595;53.584;10.084;2023-02-01T11:11:32;13.40;;;5.70;;
5153;SDS011;2595;53.584;10.084;2023-02-01T11:16:46;20.03;;;5.03;;
5153;SDS011;2595;53.584;10.084;2023-02-01T11:19:14;16.73;;;3.70;;
5153;SDS011;2595;53.584;10.084;2023-02-01T11:21:41;11.50;;;3.00;;
5153;SDS011;2595;53.584;10.084;2023-02-01T11:24:24;11.30;;;3.20;;
5153;SDS011;2595;53.584;10.084;2023-02-01T11:26:50;15.57;;;3.57;;
5153;SDS011;2595;53.584;10.084;2023-02-01T11:29:19;8.47;;;2.70;;
5153;SDS011;2595;53.584;10.084;2023-02-01T11:31:53;8.37;;;3.40;;
5153;SDS011;2595;53.584;10.084;2023-02-01T11:34:24;24.20;;;3.57;;
5153;SDS011;2595;53.584;10.084;2023-02-01T11:36:55;10.40;;;3.43;;
5153;SDS011;2595;53.584;10.084;2023-02-01T11:39:25;16.20;;;3.60;;
5153;SDS011;2595;53.584;10.084;2023-02-01T11:44:37;17.33;;;4.40;;
5153;SDS011;2595;53.584;10.084;2023-02-01T11:47:21;17.40;;;4.30;;
5153;SDS011;2595;53.584;10.084;2023-02-01T11:49:48;20.17;;;3.47;;
5153;SDS011;2595;53.584;10.084;2023-02-01T12:32:44;7.57;;;2.47;;
5153;SDS011;2595;53.584;10.084;2023-02-01T12:46:13;3.90;;;2.30;;
5153;SDS011;2595;53.584;10.084;2023-02-01T12:49:04;2.60;;;1.00;;
5153;SDS011;2595;53.584;10.084;2023-02-01T12:51:33;1.47;;;1.37;;
5153;SDS011;2595;53.584;10.084;2023-02-01T12:54:04;1.30;;;1.20;;
5153;SDS011;2595;53.584;10.084;2023-02-01T12:56:41;1.53;;;1.10;;
5153;SDS011;2595;53.584;10.084;2023-02-01T12:59:15;1.50;;;0.90;;
5153;SDS011;2595;53.584;10.084;2023-02-01T13:01:46;1.17;;;1.07;;
5153;SDS011;2595;53.584;10.084;2023-02-01T13:07:06;0.80;;;0.80;;
5153;SDS011;2595;53.584;10.084;2023-02-01T13:09:51;3.73;;;1.00;;
5153;SDS011;2595;53.584;10.084;2023-02-01T13:12:19;2.57;;;1.00;;
5153;SDS011;2595;53.584;10.084;2023-02-01T13:17:49;4.00;;;1.10;;
5153;SDS011;2595;53.584;10.084;2023-02-01T13:20:19;1.00;;;0.90;;
5153;SDS011;2595;53.584;10.084;2023-02-01T13:22:48;2.20;;;0.90;;
5153;SDS011;2595;53.584;10.084;2023-02-01T13:25:24;1.43;;;0.77;;
5153;SDS011;2595;53.584;10.084;2023-02-01T13:28:16;1.33;;;0.90;;
5153;SDS011;2595;53.584;10.084;2023-02-01T13:33:44;1.70;;;1.40;;
5153;SDS011;2595;53.584;10.084;2023-02-01T13:42:35;5.30;;;1.00;;
5153;SDS011;2595;53.584;10.084;2023-02-01T13:45:14;2.17;;;1.07;;
5153;SDS011;2595;53.584;10.084;2023-02-01T13:47:43;0.80;;;0.77;;
5153;SDS011;2595;53.584;10.084;2023-02-01T13:57:48;3.07;;;0.87;;
5153;SDS011;2595;53.584;10.084;2023-02-01T14:23:47;6.57;;;1.10;;
5153;SDS011;2595;53.584;10.084;2023-02-01T14:26:24;1.40;;;0.87;;
5153;SDS011;2595;53.584;10.084;2023-02-01T14:29:01;3.17;;;0.90;;
5153;SDS011;2595;53.584;10.084;2023-02-01T14:37:09;1.73;;;1.03;;
5153;SDS011;2595;53.584;10.084;2023-02-01T14:39:46;2.03;;;1.93;;
5153;SDS011;2595;53.584;10.084;2023-02-01T14:45:51;1.50;;;1.40;;
5153;SDS011;2595;53.584;10.084;2023-02-01T14:58:05;4.53;;;1.20;;
5153;SDS011;2595;53.584;10.084;2023-02-01T15:00:51;3.03;;;1.40;;
5153;SDS011;2595;53.584;10.084;2023-02-01T15:03:33;4.50;;;1.93;;
5153;SDS011;2595;53.584;10.084;2023-02-01T15:07:12;6.70;;;1.73;;
5153;SDS011;2595;53.584;10.084;2023-02-01T15:12:28;3.40;;;1.40;;
5153;SDS011;2595;53.584;10.084;2023-02-01T15:15:16;4.57;;;1.83;;
5153;SDS011;2595;53.584;10.084;2023-02-01T15:17:54;2.43;;;1.50;;
5153;SDS011;2595;53.584;10.084;2023-02-01T15:20:25;4.53;;;1.90;;
5153;SDS011;2595;53.584;10.084;2023-02-01T15:32:30;14.23;;;2.30;;
5153;SDS011;2595;53.584;10.084;2023-02-01T15:34:59;6.90;;;1.90;;
5153;SDS011;2595;53.584;10.084;2023-02-01T15:40:54;6.23;;;1.93;;
5153;SDS011;2595;53.584;10.084;2023-02-01T15:43:21;11.70;;;2.10;;
5153;SDS011;2595;53.584;10.084;2023-02-01T15:45:47;6.17;;;1.30;;
5153;SDS011;2595;53.584;10.084;2023-02-01T15:48:19;5.40;;;2.00;;
5153;SDS011;2595;53.584;10.084;2023-02-01T15:50:47;9.03;;;2.43;;
5153;SDS011;2595;53.584;10.084;2023-02-01T15:53:15;6.07;;;2.23;;
5153;SDS011;2595;53.584;10.084;2023-02-01T15:55:46;7.57;;;2.47;;
5153;SDS011;2595;53.584;10.084;2023-02-01T15:58:20;5.90;;;2.13;;
5153;SDS011;2595;53.584;10.084;2023-02-01T16:00:48;13.63;;;2.20;;
5153;SDS011;2595;53.584;10.084;2023-02-01T16:08:51;6.13;;;2.17;;
5153;SDS011;2595;53.584;10.084;2023-02-01T16:11:21;11.07;;;2.77;;
5153;SDS011;2595;53.584;10.084;2023-02-01T16:13:49;7.23;;;3.43;;
5153;SDS011;2595;53.584;10.084;2023-02-01T16:16:15;9.33;;;3.20;;
5153;SDS011;2595;53.584;10.084;2023-02-01T16:18:41;8.30;;;2.57;;
5153;SDS011;2595;53.584;10.084;2023-02-01T16:21:06;10.93;;;2.50;;
5153;SDS011;2595;53.584;10.084;2023-02-01T16:23:38;9.37;;;3.00;;
5153;SDS011;2595;53.584;10.084;2023-02-01T16:26:04;8.90;;;2.63;;
5153;SDS011;2595;53.584;10.084;2023-02-01T16:28:30;13.17;;;4.70;;
5153;SDS011;2595;53.584;10.084;2023-02-01T16:30:56;5.93;;;3.50;;
5153;SDS011;2595;53.584;10.084;2023-02-01T16:33:22;14.93;;;2.80;;
5153;SDS011;2595;53.584;10.084;2023-02-01T16:35:48;8.30;;;2.50;;
5153;SDS011;2595;53.584;10.084;2023-02-01T16:38:16;9.80;;;2.90;;
5153;SDS011;2595;53.584;10.084;2023-02-01T16:40:45;12.07;;;2.83;;
5153;SDS011;2595;53.584;10.084;2023-02-01T16:43:12;11.03;;;3.23;;
5153;SDS011;2595;53.584;10.084;2023-02-01T16:45:43;6.60;;;3.40;;
5153;SDS011;2595;53.584;10.084;2023-02-01T16:50:47;7.37;;;2.87;;
5153;SDS011;2595;53.584;10.084;2023-02-01T16:53:16;13.40;;;3.67;;
5153;SDS011;2595;53.584;10.084;2023-02-01T16:55:42;20.70;;;4.00;;
5153;SDS011;2595;53.584;10.084;2023-02-01T16:58:08;9.10;;;3.10;;
5153;SDS011;2595;53.584;10.084;2023-02-01T17:00:34;7.03;;;2.80;;
5153;SDS011;2595;53.584;10.084;2023-02-01T17:03:02;11.87;;;3.10;;
5153;SDS011;2595;53.584;10.084;2023-02-01T17:05:28;17.30;;;3.77;;
5153;SDS011;2595;53.584;10.084;2023-02-01T17:08:01;11.73;;;4.00;;
5153;SDS011;2595;53.584;10.084;2023-02-01T17:10:29;6.60;;;3.90;;
5153;SDS011;2595;53.584;10.084;2023-02-01T17:12:55;23.90;;;4.53;;
5153;SDS011;2595;53.584;10.084;2023-02-01T17:15:22;17.17;;;3.87;;
5153;SDS011;2595;53.584;10.084;2023-02-01T17:17:52;13.43;;;3.50;;
5153;SDS011;2595;53.584;10.084;2023-02-01T17:20:23;11.00;;;3.67;;
5153;SDS011;2595;53.584;10.084;2023-02-01T17:22:51;15.50;;;3.40;;
5153;SDS011;2595;53.584;10.084;2023-02-01T17:25:17;24.53;;;5.80;;
5153;SDS011;2595;53.584;10.084;2023-02-01T17:27:46;14.83;;;4.37;;
5153;SDS011;2595;53.584;10.084;2023-02-01T17:30:12;11.77;;;3.87;;
5153;SDS011;2595;53.584;10.084;2023-02-01T17:32:38;27.40;;;5.50;;
5153;SDS011;2595;53.584;10.084;2023-02-01T17:35:05;23.20;;;4.93;;
5153;SDS011;2595;53.584;10.084;2023-02-01T17:37:37;16.27;;;4.40;;
5153;SDS011;2595;53.584;10.084;2023-02-01T17:40:02;16.00;;;4.13;;
5153;SDS011;2595;53.584;10.084;2023-02-01T17:42:29;12.53;;;4.20;;
5153;SDS011;2595;53.584;10.084;2023-02-01T17:44:55;18.17;;;4.53;;
5153;SDS011;2595;53.584;10.084;2023-02-01T17:47:24;15.30;;;4.23;;
5153;SDS011;2595;53.584;10.084;2023-02-01T17:49:50;15.67;;;3.13;;
5153;SDS011;2595;53.584;10.084;2023-02-01T17:52:20;21.27;;;3.97;;
5153;SDS011;2595;53.584;10.084;2023-02-01T17:54:47;18.67;;;4.87;;
5153;SDS011;2595;53.584;10.084;2023-02-01T17:57:17;28.13;;;4.17;;
5153;SDS011;2595;53.584;10.084;2023-02-01T17:59:43;15.03;;;3.10;;
5153;SDS011;2595;53.584;10.084;2023-02-01T18:02:16;13.00;;;3.77;;
5153;SDS011;2595;53.584;10.084;2023-02-01T18:04:43;11.23;;;4.37;;
5153;SDS011;2595;53.584;10.084;2023-02-01T18:07:09;10.53;;;2.87;;
5153;SDS011;2595;53.584;10.084;2023-02-01T18:09:34;15.73;;;3.90;;
5153;SDS011;2595;53.584;10.084;2023-02-01T18:12:01;16.20;;;3.60;;
5153;SDS011;2595;53.584;10.084;2023-02-01T18:14:29;19.73;;;4.97;;
5153;SDS011;2595;53.584;10.084;2023-02-01T18:16:55;20.77;;;3.37;;
5153;SDS011;2595;53.584;10.084;2023-02-01T18:19:20;11.10;;;4.23;;
5153;SDS011;2595;53.584;10.084;2023-02-01T18:21:46;7.93;;;2.70;;
5153;SDS011;2595;53.584;10.084;2023-02-01T18:24:12;22.73;;;4.30;;
5153;SDS011;2595;53.584;10.084;2023-02-01T18:26:39;20.00;;;4.37;;
5153;SDS011;2595;53.584;10.084;2023-02-01T18:29:05;11.60;;;3.97;;
5153;SDS011;2595;53.584;10.084;2023-02-01T18:31:31;27.03;;;5.00;;
5153;SDS011;2595;53.584;10.084;2023-02-01T18:33:58;11.87;;;5.10;;
5153;SDS011;2595;53.584;10.084;2023-02-01T18:36:24;13.93;;;3.90;;
5153;SDS011;2595;53.584;10.084;2023-02-01T18:38:50;9.43;;;3.60;;
5153;SDS011;2595;53.584;10.084;2023-02-01T18:41:18;12.40;;;4.10;;
5153;SDS011;2595;53.584;10.084;2023-02-01T18:43:45;20.77;;;4.10;;